Olmstedville, NY

8:51 AM EDT on September 02, 2015 (GMT -0400)
Goodnow flow | | Change Station
CLOSE
Current Station
Personal Weather Station
Location: Newcomb, NY
Elevation: 1654 ft
Nearby Weather Stations

Elev 1654 ft 43.92 °N, 74.21 °W | Updated 10 minutes ago

Mostly Cloudy
Mostly Cloudy
63.4 °F
Feels Like 63.4 °F
N
1.0
Wind Variable Wind from SSW
Gusts 3.0 mph

Today
High -- | Low -- °F
--% Chance of Precip.
Yesterday
High -- | Low -- °F
Precip. -- in
6:20 AM 7:30 PM
Waning Gibbous, 80% visible
Pressure 30.04 in
Visibility 4.0 miles
Clouds Overcast 900 ft
Dew Point 62 °F
Humidity 96%
Rainfall 0.00 in
Snow Depth Not available.
UV 0 out of 12
Pollen 8.40 out of 12
Air Quality Not available.
Flu Activity Not available.
METAR KSLK 021151Z AUTO 21004KT 4SM BR OVC009 17/16 A3006 RMK AO2 SLP172 T01670161 10167 20122 51002
Pressure 30.04 in
Visibility 4.0 miles
Clouds Overcast 900 ft
Dew Point 62 °F
Humidity 96%
Rainfall 0.00 in
Snow Depth Not available.
UV 0 out of 12
Pollen 8.40 out of 12
Air Quality Not available.
Flu Activity Not available.
METAR KSLK 021151Z AUTO 21004KT 4SM BR OVC009 17/16 A3006 RMK AO2 SLP172 T01670161 10167 20122 51002

10-Day Weather Forecast

×

Almanac

Astronomy

Sep. 02, 2015 Rise Set
Actual Time
Civil Twilight
Nautical Twilight
Astronomical Twilight
Moon
Length of Visible Light
Length of Day
Tomorrow will be .
, % of the Moon is Illuminated

Today's Extremes

State Highs State Lows

Community

WunderPhotos

Upload Photos

1,851,738 photos uploaded!

WunderBlogs® & News

Nearby

Air Quality

  Air Quality AQ Index Pollutant
Not available.

Snow Depth

Station Depth Elevation

Earthquake Activity

City Distance Mag. Time & Date
Minimum magnitude displayed is 2.5.

Coastal Water Temperatures

Place Temperature

Stations

Nearby Weather Stations

Station Location Temp. Windchill Dew Point Humidity Wind Precip. Elev Updated Type